sensor_id;sensor_type;location;lat;lon;timestamp;pressure;altitude;pressure_sealevel;temperature;humidity
56719;BME280;42597;40.636;0.278;2022-10-16T00:00:39;97219.00;;;21.16;79.93
56719;BME280;42597;40.636;0.278;2022-10-16T00:03:06;97210.28;;;21.22;78.85
56719;BME280;42597;40.636;0.278;2022-10-16T00:05:31;97214.56;;;21.23;78.19
56719;BME280;42597;40.636;0.278;2022-10-16T00:07:57;97212.59;;;21.27;77.95
56719;BME280;42597;40.636;0.278;2022-10-16T00:10:23;97214.84;;;21.32;77.35
56719;BME280;42597;40.636;0.278;2022-10-16T00:12:49;97215.41;;;20.20;79.59
56719;BME280;42597;40.636;0.278;2022-10-16T00:15:14;97215.63;;;20.75;80.32
56719;BME280;42597;40.636;0.278;2022-10-16T00:17:40;97204.19;;;20.42;82.69
56719;BME280;42597;40.636;0.278;2022-10-16T00:20:06;97206.84;;;20.15;79.36
56719;BME280;42597;40.636;0.278;2022-10-16T00:22:32;97195.41;;;20.58;81.66
56719;BME280;42597;40.636;0.278;2022-10-16T00:24:58;97196.75;;;20.05;79.53
56719;BME280;42597;40.636;0.278;2022-10-16T00:27:24;97195.19;;;18.96;85.37
56719;BME280;42597;40.636;0.278;2022-10-16T00:29:50;97193.66;;;18.88;87.54
56719;BME280;42597;40.636;0.278;2022-10-16T00:32:17;97189.50;;;18.44;88.99
56719;BME280;42597;40.636;0.278;2022-10-16T00:34:43;97180.44;;;18.68;88.97
56719;BME280;42597;40.636;0.278;2022-10-16T00:37:08;97180.84;;;18.70;88.54
56719;BME280;42597;40.636;0.278;2022-10-16T00:39:34;97179.44;;;18.09;89.47
56719;BME280;42597;40.636;0.278;2022-10-16T00:41:59;97172.84;;;17.88;91.13
56719;BME280;42597;40.636;0.278;2022-10-16T00:44:51;97174.81;;;17.63;91.21
56719;BME280;42597;40.636;0.278;2022-10-16T00:47:29;97177.94;;;17.61;90.54
56719;BME280;42597;40.636;0.278;2022-10-16T00:50:01;97173.78;;;19.88;85.54
56719;BME280;42597;40.636;0.278;2022-10-16T00:52:30;97182.00;;;20.67;80.52
56719;BME280;42597;40.636;0.278;2022-10-16T00:54:56;97178.78;;;20.00;79.01
56719;BME280;42597;40.636;0.278;2022-10-16T00:57:23;97184.97;;;20.42;80.43
56719;BME280;42597;40.636;0.278;2022-10-16T00:59:49;97176.00;;;19.55;79.22
56719;BME280;42597;40.636;0.278;2022-10-16T01:02:16;97173.50;;;18.42;81.92
56719;BME280;42597;40.636;0.278;2022-10-16T01:04:44;97168.03;;;18.46;82.46
56719;BME280;42597;40.636;0.278;2022-10-16T01:07:24;97169.59;;;18.36;81.83
56719;BME280;42597;40.636;0.278;2022-10-16T01:15:34;97146.72;;;19.90;75.48
56719;BME280;42597;40.636;0.278;2022-10-16T01:18:23;97157.84;;;19.76;76.58
56719;BME280;42597;40.636;0.278;2022-10-16T01:21:01;97152.41;;;18.36;80.35
56719;BME280;42597;40.636;0.278;2022-10-16T01:23:42;97158.38;;;20.01;79.43
56719;BME280;42597;40.636;0.278;2022-10-16T01:31:29;97170.16;;;20.36;77.25
56719;BME280;42597;40.636;0.278;2022-10-16T01:36:31;97212.06;;;20.74;74.43
56719;BME280;42597;40.636;0.278;2022-10-16T01:39:01;97218.44;;;20.30;74.40
56719;BME280;42597;40.636;0.278;2022-10-16T01:41:33;97217.81;;;19.07;79.44
56719;BME280;42597;40.636;0.278;2022-10-16T01:44:31;97211.09;;;20.57;75.35
56719;BME280;42597;40.636;0.278;2022-10-16T01:46:58;97223.56;;;19.31;78.61
56719;BME280;42597;40.636;0.278;2022-10-16T01:49:28;97229.06;;;18.07;84.57
56719;BME280;42597;40.636;0.278;2022-10-16T01:51:56;97235.31;;;18.11;85.60
56719;BME280;42597;40.636;0.278;2022-10-16T01:54:27;97240.00;;;18.21;86.53
56719;BME280;42597;40.636;0.278;2022-10-16T01:56:55;97221.00;;;18.98;85.95
56719;BME280;42597;40.636;0.278;2022-10-16T01:59:24;97210.41;;;19.04;84.95
56719;BME280;42597;40.636;0.278;2022-10-16T02:01:58;97214.91;;;18.48;89.72
56719;BME280;42597;40.636;0.278;2022-10-16T02:05:16;97219.66;;;18.33;91.22
56719;BME280;42597;40.636;0.278;2022-10-16T02:07:22;97218.47;;;18.27;92.45
56719;BME280;42597;40.636;0.278;2022-10-16T02:09:47;97208.88;;;19.62;84.48
56719;BME280;42597;40.636;0.278;2022-10-16T02:12:24;97205.22;;;19.20;87.06
56719;BME280;42597;40.636;0.278;2022-10-16T02:14:51;97205.31;;;20.48;79.42
56719;BME280;42597;40.636;0.278;2022-10-16T02:17:17;97209.41;;;20.70;77.93
56719;BME280;42597;40.636;0.278;2022-10-16T02:19:45;97200.69;;;18.89;87.48
56719;BME280;42597;40.636;0.278;2022-10-16T02:22:32;97203.28;;;18.19;95.59
56719;BME280;42597;40.636;0.278;2022-10-16T02:25:31;97198.44;;;18.69;92.75
56719;BME280;42597;40.636;0.278;2022-10-16T02:28:23;97199.78;;;18.00;93.30
56719;BME280;42597;40.636;0.278;2022-10-16T02:30:56;97206.81;;;17.55;93.54
56719;BME280;42597;40.636;0.278;2022-10-16T02:33:25;97208.78;;;17.65;92.02
56719;BME280;42597;40.636;0.278;2022-10-16T02:35:52;97209.56;;;18.05;92.20
56719;BME280;42597;40.636;0.278;2022-10-16T02:38:20;97197.97;;;19.52;82.46
56719;BME280;42597;40.636;0.278;2022-10-16T02:40:46;97187.06;;;19.93;83.60
56719;BME280;42597;40.636;0.278;2022-10-16T02:43:12;97193.00;;;18.52;83.84
56719;BME280;42597;40.636;0.278;2022-10-16T02:45:38;97193.13;;;17.34;89.38
56719;BME280;42597;40.636;0.278;2022-10-16T02:48:05;97195.47;;;17.39;90.28
56719;BME280;42597;40.636;0.278;2022-10-16T02:50:30;97208.69;;;17.08;91.76
56719;BME280;42597;40.636;0.278;2022-10-16T02:52:56;97201.72;;;17.21;91.22
56719;BME280;42597;40.636;0.278;2022-10-16T02:55:22;97193.88;;;17.02;91.55
56719;BME280;42597;40.636;0.278;2022-10-16T02:57:47;97206.34;;;17.03;91.10
56719;BME280;42597;40.636;0.278;2022-10-16T03:00:15;97197.81;;;17.22;89.66
56719;BME280;42597;40.636;0.278;2022-10-16T03:02:42;97199.34;;;17.09;89.14
56719;BME280;42597;40.636;0.278;2022-10-16T03:05:08;97203.22;;;17.01;89.41
56719;BME280;42597;40.636;0.278;2022-10-16T03:07:34;97201.72;;;17.25;88.34
56719;BME280;42597;40.636;0.278;2022-10-16T03:09:59;97208.38;;;17.60;86.31
56719;BME280;42597;40.636;0.278;2022-10-16T03:12:28;97211.91;;;17.82;84.77
56719;BME280;42597;40.636;0.278;2022-10-16T03:14:55;97201.13;;;18.80;85.54
56719;BME280;42597;40.636;0.278;2022-10-16T03:17:22;97207.44;;;18.63;79.76
56719;BME280;42597;40.636;0.278;2022-10-16T03:19:47;97212.50;;;18.71;81.16
56719;BME280;42597;40.636;0.278;2022-10-16T03:22:13;97215.31;;;18.39;80.19
56719;BME280;42597;40.636;0.278;2022-10-16T03:24:38;97237.63;;;17.52;82.72
56719;BME280;42597;40.636;0.278;2022-10-16T03:27:04;97243.81;;;17.13;84.85
56719;BME280;42597;40.636;0.278;2022-10-16T03:29:29;97236.38;;;17.03;85.27
56719;BME280;42597;40.636;0.278;2022-10-16T03:31:56;97227.31;;;19.55;80.26
56719;BME280;42597;40.636;0.278;2022-10-16T03:34:22;97241.53;;;17.51;82.07
56719;BME280;42597;40.636;0.278;2022-10-16T03:36:47;97237.47;;;16.88;86.55
56719;BME280;42597;40.636;0.278;2022-10-16T03:39:13;97238.50;;;16.58;88.92
56719;BME280;42597;40.636;0.278;2022-10-16T03:41:39;97243.56;;;16.60;89.41
56719;BME280;42597;40.636;0.278;2022-10-16T03:44:05;97245.94;;;16.61;89.08
56719;BME280;42597;40.636;0.278;2022-10-16T03:46:31;97245.94;;;16.61;88.98
56719;BME280;42597;40.636;0.278;2022-10-16T03:48:56;97233.50;;;16.71;88.17
56719;BME280;42597;40.636;0.278;2022-10-16T03:51:22;97232.25;;;19.15;82.56
56719;BME280;42597;40.636;0.278;2022-10-16T03:53:47;97227.31;;;20.03;75.71
56719;BME280;42597;40.636;0.278;2022-10-16T03:56:13;97233.84;;;19.71;75.92
56719;BME280;42597;40.636;0.278;2022-10-16T03:58:38;97245.41;;;17.32;83.49
56719;BME280;42597;40.636;0.278;2022-10-16T04:01:04;97239.47;;;16.98;86.05
56719;BME280;42597;40.636;0.278;2022-10-16T04:03:30;97238.03;;;17.68;85.52
56719;BME280;42597;40.636;0.278;2022-10-16T04:05:56;97237.09;;;19.52;78.26
56719;BME280;42597;40.636;0.278;2022-10-16T04:08:22;97242.97;;;18.81;77.66
56719;BME280;42597;40.636;0.278;2022-10-16T04:10:47;97242.34;;;17.69;83.39
56719;BME280;42597;40.636;0.278;2022-10-16T04:13:13;97243.13;;;17.70;83.73
56719;BME280;42597;40.636;0.278;2022-10-16T04:15:39;97249.72;;;17.33;84.38
56719;BME280;42597;40.636;0.278;2022-10-16T04:18:05;97257.97;;;17.83;84.42
56719;BME280;42597;40.636;0.278;2022-10-16T04:20:31;97251.09;;;19.68;77.10
56719;BME280;42597;40.636;0.278;2022-10-16T04:22:57;97249.28;;;20.03;74.48
56719;BME280;42597;40.636;0.278;2022-10-16T04:25:23;97266.41;;;20.14;73.20
56719;BME280;42597;40.636;0.278;2022-10-16T04:27:48;97258.53;;;20.20;72.46
56719;BME280;42597;40.636;0.278;2022-10-16T04:30:14;97261.75;;;20.11;72.72
56719;BME280;42597;40.636;0.278;2022-10-16T04:32:40;97268.94;;;19.94;72.97
56719;BME280;42597;40.636;0.278;2022-10-16T04:35:06;97275.13;;;18.34;76.40
56719;BME280;42597;40.636;0.278;2022-10-16T04:37:32;97276.59;;;17.17;82.88
56719;BME280;42597;40.636;0.278;2022-10-16T04:39:58;97278.28;;;18.14;83.14
56719;BME280;42597;40.636;0.278;2022-10-16T04:42:23;97275.91;;;18.38;78.72
56719;BME280;42597;40.636;0.278;2022-10-16T04:44:49;97281.03;;;17.86;80.87
56719;BME280;42597;40.636;0.278;2022-10-16T04:47:15;97285.63;;;17.46;82.29
56719;BME280;42597;40.636;0.278;2022-10-16T04:49:40;97273.16;;;17.56;82.90
56719;BME280;42597;40.636;0.278;2022-10-16T04:52:06;97285.97;;;17.26;83.77
56719;BME280;42597;40.636;0.278;2022-10-16T04:54:33;97280.09;;;17.24;84.03
56719;BME280;42597;40.636;0.278;2022-10-16T04:56:59;97279.78;;;17.55;85.07
56719;BME280;42597;40.636;0.278;2022-10-16T04:59:25;97277.88;;;17.84;82.48
56719;BME280;42597;40.636;0.278;2022-10-16T05:01:50;97271.19;;;18.49;80.35
56719;BME280;42597;40.636;0.278;2022-10-16T05:04:16;97276.47;;;19.13;76.66
56719;BME280;42597;40.636;0.278;2022-10-16T05:06:42;97283.59;;;18.93;74.66
56719;BME280;42597;40.636;0.278;2022-10-16T05:09:08;97279.06;;;17.90;77.61
56719;BME280;42597;40.636;0.278;2022-10-16T05:11:34;97280.47;;;17.19;80.61
56719;BME280;42597;40.636;0.278;2022-10-16T05:14:00;97288.78;;;17.62;80.57
56719;BME280;42597;40.636;0.278;2022-10-16T05:16:26;97284.47;;;18.54;78.30
56719;BME280;42597;40.636;0.278;2022-10-16T05:18:52;97280.59;;;17.76;76.99
56719;BME280;42597;40.636;0.278;2022-10-16T05:21:18;97290.78;;;17.83;77.18
56719;BME280;42597;40.636;0.278;2022-10-16T05:23:43;97298.91;;;17.58;78.00
56719;BME280;42597;40.636;0.278;2022-10-16T05:26:09;97301.94;;;19.10;75.94
56719;BME280;42597;40.636;0.278;2022-10-16T05:28:35;97292.13;;;19.09;71.87
56719;BME280;42597;40.636;0.278;2022-10-16T05:31:05;97302.50;;;18.30;74.36
56719;BME280;42597;40.636;0.278;2022-10-16T05:33:32;97301.69;;;18.51;73.34
56719;BME280;42597;40.636;0.278;2022-10-16T05:36:05;97304.00;;;17.70;75.96
56719;BME280;42597;40.636;0.278;2022-10-16T05:38:33;97301.50;;;19.19;73.24
56719;BME280;42597;40.636;0.278;2022-10-16T05:40:59;97302.50;;;18.27;74.05
56719;BME280;42597;40.636;0.278;2022-10-16T05:43:24;97311.44;;;18.48;75.22
56719;BME280;42597;40.636;0.278;2022-10-16T05:46:03;97312.63;;;17.80;77.29
56719;BME280;42597;40.636;0.278;2022-10-16T05:48:29;97305.47;;;17.25;77.46
56719;BME280;42597;40.636;0.278;2022-10-16T05:50:59;97302.88;;;17.93;75.27
56719;BME280;42597;40.636;0.278;2022-10-16T05:53:27;97296.84;;;19.05;74.22
56719;BME280;42597;40.636;0.278;2022-10-16T05:55:54;97303.97;;;18.81;70.74
56719;BME280;42597;40.636;0.278;2022-10-16T05:58:20;97308.69;;;18.66;75.17
56719;BME280;42597;40.636;0.278;2022-10-16T06:00:56;97309.16;;;18.18;74.55
56719;BME280;42597;40.636;0.278;2022-10-16T06:03:22;97315.00;;;18.31;76.30
56719;BME280;42597;40.636;0.278;2022-10-16T06:05:48;97314.56;;;17.61;75.16
56719;BME280;42597;40.636;0.278;2022-10-16T06:08:14;97310.91;;;19.11;73.04
56719;BME280;42597;40.636;0.278;2022-10-16T06:10:40;97318.66;;;19.30;71.09
56719;BME280;42597;40.636;0.278;2022-10-16T06:13:05;97318.59;;;19.37;70.91
56719;BME280;42597;40.636;0.278;2022-10-16T06:15:31;97332.91;;;18.61;72.36
56719;BME280;42597;40.636;0.278;2022-10-16T06:17:56;97329.56;;;19.41;70.92
56719;BME280;42597;40.636;0.278;2022-10-16T06:20:22;97331.66;;;19.89;68.48
56719;BME280;42597;40.636;0.278;2022-10-16T06:22:48;97335.22;;;18.98;68.70
56719;BME280;42597;40.636;0.278;2022-10-16T06:25:13;97339.75;;;17.15;76.61
56719;BME280;42597;40.636;0.278;2022-10-16T06:27:40;97338.03;;;16.78;80.38
56719;BME280;42597;40.636;0.278;2022-10-16T06:30:06;97349.16;;;17.28;77.72
56719;BME280;42597;40.636;0.278;2022-10-16T06:32:32;97343.59;;;17.03;77.36
56719;BME280;42597;40.636;0.278;2022-10-16T06:34:58;97343.09;;;17.74;74.98
56719;BME280;42597;40.636;0.278;2022-10-16T06:37:24;97332.66;;;19.50;71.40
56719;BME280;42597;40.636;0.278;2022-10-16T06:39:50;97339.50;;;19.90;68.95
56719;BME280;42597;40.636;0.278;2022-10-16T06:42:18;97336.28;;;19.99;67.99
56719;BME280;42597;40.636;0.278;2022-10-16T06:44:43;97341.13;;;19.73;68.13
56719;BME280;42597;40.636;0.278;2022-10-16T06:47:09;97339.84;;;19.96;67.71
56719;BME280;42597;40.636;0.278;2022-10-16T06:49:35;97338.41;;;19.73;66.11
56719;BME280;42597;40.636;0.278;2022-10-16T06:52:01;97349.38;;;18.36;70.85
56719;BME280;42597;40.636;0.278;2022-10-16T06:54:27;97351.75;;;18.37;72.06
56719;BME280;42597;40.636;0.278;2022-10-16T06:56:53;97345.00;;;19.83;68.32
56719;BME280;42597;40.636;0.278;2022-10-16T06:59:21;97350.31;;;20.08;66.80
56719;BME280;42597;40.636;0.278;2022-10-16T07:01:47;97354.16;;;20.18;66.39
56719;BME280;42597;40.636;0.278;2022-10-16T07:04:13;97351.78;;;20.24;65.94
56719;BME280;42597;40.636;0.278;2022-10-16T07:06:39;97363.88;;;20.30;65.62
56719;BME280;42597;40.636;0.278;2022-10-16T07:09:09;97377.59;;;20.30;65.50
56719;BME280;42597;40.636;0.278;2022-10-16T07:11:36;97378.78;;;20.29;65.39
56719;BME280;42597;40.636;0.278;2022-10-16T07:14:03;97388.94;;;20.32;65.17
56719;BME280;42597;40.636;0.278;2022-10-16T07:16:31;97399.97;;;19.58;66.64
56719;BME280;42597;40.636;0.278;2022-10-16T07:18:58;97414.25;;;18.32;71.30
56719;BME280;42597;40.636;0.278;2022-10-16T07:21:27;97401.75;;;18.31;72.31
56719;BME280;42597;40.636;0.278;2022-10-16T07:23:58;97407.16;;;17.95;75.04
56719;BME280;42597;40.636;0.278;2022-10-16T07:26:25;97407.22;;;18.59;73.25
56719;BME280;42597;40.636;0.278;2022-10-16T07:28:52;97397.00;;;20.01;68.19
56719;BME280;42597;40.636;0.278;2022-10-16T07:31:19;97401.97;;;20.20;66.89
56719;BME280;42597;40.636;0.278;2022-10-16T07:33:46;97424.03;;;18.90;69.38
56719;BME280;42597;40.636;0.278;2022-10-16T07:36:13;97415.06;;;19.99;68.19
56719;BME280;42597;40.636;0.278;2022-10-16T07:38:39;97435.19;;;19.56;67.07
56719;BME280;42597;40.636;0.278;2022-10-16T07:41:11;97434.59;;;18.63;69.80
56719;BME280;42597;40.636;0.278;2022-10-16T07:43:37;97438.91;;;18.49;71.13
56719;BME280;42597;40.636;0.278;2022-10-16T07:46:03;97436.91;;;18.64;71.16
56719;BME280;42597;40.636;0.278;2022-10-16T07:48:33;97451.41;;;18.83;70.77
56719;BME280;42597;40.636;0.278;2022-10-16T07:51:04;97436.13;;;19.03;69.86
56719;BME280;42597;40.636;0.278;2022-10-16T07:53:31;97434.50;;;19.38;69.29
56719;BME280;42597;40.636;0.278;2022-10-16T07:55:58;97431.97;;;19.83;68.67
56719;BME280;42597;40.636;0.278;2022-10-16T07:58:24;97445.38;;;19.59;68.28
56719;BME280;42597;40.636;0.278;2022-10-16T08:00:50;97438.72;;;20.34;67.16
56719;BME280;42597;40.636;0.278;2022-10-16T08:03:16;97444.88;;;20.56;66.16
56719;BME280;42597;40.636;0.278;2022-10-16T08:05:41;97444.81;;;20.63;65.87
56719;BME280;42597;40.636;0.278;2022-10-16T08:08:12;97445.53;;;20.70;65.45
56719;BME280;42597;40.636;0.278;2022-10-16T08:10:38;97452.63;;;20.64;66.43
56719;BME280;42597;40.636;0.278;2022-10-16T08:13:03;97443.44;;;20.30;66.74
56719;BME280;42597;40.636;0.278;2022-10-16T08:15:29;97446.09;;;20.44;65.81
56719;BME280;42597;40.636;0.278;2022-10-16T08:17:57;97443.97;;;20.66;65.84
56719;BME280;42597;40.636;0.278;2022-10-16T08:20:23;97440.03;;;20.70;66.38
56719;BME280;42597;40.636;0.278;2022-10-16T08:22:49;97445.25;;;20.54;67.02
56719;BME280;42597;40.636;0.278;2022-10-16T08:25:14;97440.81;;;20.71;66.51
56719;BME280;42597;40.636;0.278;2022-10-16T08:27:40;97443.91;;;20.77;66.07
56719;BME280;42597;40.636;0.278;2022-10-16T08:30:06;97455.59;;;20.88;65.77
56719;BME280;42597;40.636;0.278;2022-10-16T08:32:32;97452.13;;;20.80;66.70
56719;BME280;42597;40.636;0.278;2022-10-16T08:34:58;97450.59;;;20.76;66.47
56719;BME280;42597;40.636;0.278;2022-10-16T08:37:23;97449.41;;;20.77;66.01
56719;BME280;42597;40.636;0.278;2022-10-16T08:39:49;97454.03;;;20.87;66.39
56719;BME280;42597;40.636;0.278;2022-10-16T08:45:02;97441.47;;;20.82;67.58
56719;BME280;42597;40.636;0.278;2022-10-16T08:50:18;97449.16;;;21.02;66.26
56719;BME280;42597;40.636;0.278;2022-10-16T08:52:46;97448.03;;;20.99;65.74
56719;BME280;42597;40.636;0.278;2022-10-16T08:57:53;97455.44;;;21.02;65.70
56719;BME280;42597;40.636;0.278;2022-10-16T09:00:19;97455.44;;;21.02;65.98
56719;BME280;42597;40.636;0.278;2022-10-16T09:08:03;97444.09;;;21.38;71.17
56719;BME280;42597;40.636;0.278;2022-10-16T09:10:36;97448.97;;;21.23;67.51
56719;BME280;42597;40.636;0.278;2022-10-16T09:13:40;97456.84;;;21.17;66.39
56719;BME280;42597;40.636;0.278;2022-10-16T09:16:19;97455.00;;;21.49;73.72
56719;BME280;42597;40.636;0.278;2022-10-16T09:21:33;97458.22;;;21.40;69.28
56719;BME280;42597;40.636;0.278;2022-10-16T09:24:14;97458.28;;;21.36;73.52
56719;BME280;42597;40.636;0.278;2022-10-16T09:26:40;97459.88;;;21.68;88.76
56719;BME280;42597;40.636;0.278;2022-10-16T09:29:05;97455.63;;;21.63;88.30
56719;BME280;42597;40.636;0.278;2022-10-16T09:31:31;97464.06;;;21.80;90.98
56719;BME280;42597;40.636;0.278;2022-10-16T09:34:02;97462.25;;;21.97;90.68
56719;BME280;42597;40.636;0.278;2022-10-16T09:36:40;97476.56;;;21.84;88.88
56719;BME280;42597;40.636;0.278;2022-10-16T09:39:09;97477.44;;;21.78;88.30
56719;BME280;42597;40.636;0.278;2022-10-16T09:41:39;97475.50;;;21.40;75.84
56719;BME280;42597;40.636;0.278;2022-10-16T09:44:33;97481.78;;;21.41;76.22
56719;BME280;42597;40.636;0.278;2022-10-16T09:47:12;97471.88;;;21.81;90.91
56719;BME280;42597;40.636;0.278;2022-10-16T09:49:38;97477.19;;;21.99;90.19
56719;BME280;42597;40.636;0.278;2022-10-16T09:52:12;97472.34;;;22.07;89.29
56719;BME280;42597;40.636;0.278;2022-10-16T09:54:49;97477.19;;;21.99;87.85
56719;BME280;42597;40.636;0.278;2022-10-16T09:57:15;97481.59;;;21.59;78.40
56719;BME280;42597;40.636;0.278;2022-10-16T09:59:48;97487.06;;;22.27;87.74
56719;BME280;42597;40.636;0.278;2022-10-16T10:02:17;97487.91;;;22.21;88.36
56719;BME280;42597;40.636;0.278;2022-10-16T10:04:49;97487.41;;;22.29;86.40
56719;BME280;42597;40.636;0.278;2022-10-16T10:07:39;97486.72;;;21.91;78.28
56719;BME280;42597;40.636;0.278;2022-10-16T10:10:22;97486.06;;;22.41;84.93
56719;BME280;42597;40.636;0.278;2022-10-16T10:12:49;97484.28;;;22.54;82.55
56719;BME280;42597;40.636;0.278;2022-10-16T10:15:15;97480.34;;;22.55;82.17
56719;BME280;42597;40.636;0.278;2022-10-16T10:17:53;97485.72;;;22.62;80.55
56719;BME280;42597;40.636;0.278;2022-10-16T10:20:36;97488.03;;;22.67;82.18
56719;BME280;42597;40.636;0.278;2022-10-16T10:23:24;97486.13;;;22.88;79.98
56719;BME280;42597;40.636;0.278;2022-10-16T10:29:31;97480.63;;;22.88;79.15
56719;BME280;42597;40.636;0.278;2022-10-16T10:32:27;97486.63;;;22.79;78.51
56719;BME280;42597;40.636;0.278;2022-10-16T10:35:12;97475.84;;;22.92;77.27
56719;BME280;42597;40.636;0.278;2022-10-16T10:40:46;97479.94;;;22.80;73.26
56719;BME280;42597;40.636;0.278;2022-10-16T10:46:51;97491.53;;;22.95;76.13
56719;BME280;42597;40.636;0.278;2022-10-16T11:05:40;97483.56;;;23.24;75.48
56719;BME280;42597;40.636;0.278;2022-10-16T11:08:19;97486.38;;;23.21;74.54
56719;BME280;42597;40.636;0.278;2022-10-16T11:10:57;97475.06;;;22.92;73.92
56719;BME280;42597;40.636;0.278;2022-10-16T11:16:17;97466.53;;;23.29;70.78
56719;BME280;42597;40.636;0.278;2022-10-16T11:22:40;97447.34;;;23.66;68.16
56719;BME280;42597;40.636;0.278;2022-10-16T11:27:47;97452.03;;;23.45;69.92
56719;BME280;42597;40.636;0.278;2022-10-16T11:30:25;97455.84;;;23.51;71.03
56719;BME280;42597;40.636;0.278;2022-10-16T11:46:51;97440.81;;;23.36;69.90
56719;BME280;42597;40.636;0.278;2022-10-16T11:49:22;97434.72;;;23.45;70.93
56719;BME280;42597;40.636;0.278;2022-10-16T11:52:07;97434.09;;;23.77;67.75
56719;BME280;42597;40.636;0.278;2022-10-16T11:57:13;97434.44;;;23.79;65.67
56719;BME280;42597;40.636;0.278;2022-10-16T12:04:47;97427.09;;;23.52;67.63
56719;BME280;42597;40.636;0.278;2022-10-16T12:07:19;97423.44;;;23.95;65.73
56719;BME280;42597;40.636;0.278;2022-10-16T12:09:47;97426.72;;;23.50;68.02
56719;BME280;42597;40.636;0.278;2022-10-16T12:12:39;97420.91;;;24.04;64.12
56719;BME280;42597;40.636;0.278;2022-10-16T12:15:27;97426.09;;;23.82;65.70
56719;BME280;42597;40.636;0.278;2022-10-16T12:17:54;97410.72;;;24.01;64.83
56719;BME280;42597;40.636;0.278;2022-10-16T12:20:29;97417.06;;;23.98;65.27
56719;BME280;42597;40.636;0.278;2022-10-16T12:23:06;97408.94;;;23.91;65.29
56719;BME280;42597;40.636;0.278;2022-10-16T12:25:39;97414.88;;;24.09;63.06
56719;BME280;42597;40.636;0.278;2022-10-16T12:28:20;97421.09;;;24.13;61.89
56719;BME280;42597;40.636;0.278;2022-10-16T12:31:05;97433.34;;;24.12;63.42
56719;BME280;42597;40.636;0.278;2022-10-16T12:33:39;97427.81;;;24.12;63.33
56719;BME280;42597;40.636;0.278;2022-10-16T12:36:14;97430.13;;;23.78;67.00
56719;BME280;42597;40.636;0.278;2022-10-16T12:38:51;97428.31;;;24.07;66.82
56719;BME280;42597;40.636;0.278;2022-10-16T12:41:30;97431.03;;;23.51;68.39
56719;BME280;42597;40.636;0.278;2022-10-16T12:43:56;97430.22;;;24.10;66.32
56719;BME280;42597;40.636;0.278;2022-10-16T12:51:54;97427.56;;;23.87;66.71
56719;BME280;42597;40.636;0.278;2022-10-16T12:54:35;97428.50;;;24.17;65.11
56719;BME280;42597;40.636;0.278;2022-10-16T12:57:25;97425.84;;;24.29;62.98
56719;BME280;42597;40.636;0.278;2022-10-16T13:23:21;97417.78;;;24.02;77.17
56719;BME280;42597;40.636;0.278;2022-10-16T13:28:27;97416.94;;;24.05;75.28
56719;BME280;42597;40.636;0.278;2022-10-16T13:30:57;97419.88;;;24.14;77.33
56719;BME280;42597;40.636;0.278;2022-10-16T13:33:38;97418.84;;;23.72;78.51
56719;BME280;42597;40.636;0.278;2022-10-16T13:36:05;97423.06;;;23.77;80.04
56719;BME280;42597;40.636;0.278;2022-10-16T13:38:35;97429.00;;;23.75;80.81
56719;BME280;42597;40.636;0.278;2022-10-16T13:41:02;97424.59;;;23.58;81.50
56719;BME280;42597;40.636;0.278;2022-10-16T13:43:41;97427.38;;;23.78;81.61
56719;BME280;42597;40.636;0.278;2022-10-16T13:48:39;97415.97;;;23.76;81.07
56719;BME280;42597;40.636;0.278;2022-10-16T13:51:16;97410.88;;;23.54;81.58
56719;BME280;42597;40.636;0.278;2022-10-16T13:53:43;97413.06;;;23.63;80.88
56719;BME280;42597;40.636;0.278;2022-10-16T13:56:14;97422.56;;;23.62;81.62
56719;BME280;42597;40.636;0.278;2022-10-16T13:58:41;97408.81;;;23.58;82.45
56719;BME280;42597;40.636;0.278;2022-10-16T14:01:28;97415.88;;;23.59;79.46
56719;BME280;42597;40.636;0.278;2022-10-16T14:04:01;97415.41;;;23.64;81.21
56719;BME280;42597;40.636;0.278;2022-10-16T14:06:28;97425.38;;;23.78;80.55
56719;BME280;42597;40.636;0.278;2022-10-16T14:09:22;97417.03;;;23.82;81.19
56719;BME280;42597;40.636;0.278;2022-10-16T14:11:53;97420.53;;;24.02;80.16
56719;BME280;42597;40.636;0.278;2022-10-16T14:14:20;97423.53;;;23.72;80.29
56719;BME280;42597;40.636;0.278;2022-10-16T14:16:46;97427.88;;;23.73;81.63
56719;BME280;42597;40.636;0.278;2022-10-16T14:19:24;97419.09;;;23.78;79.94
56719;BME280;42597;40.636;0.278;2022-10-16T14:21:51;97419.69;;;23.69;79.50
56719;BME280;42597;40.636;0.278;2022-10-16T14:24:30;97423.63;;;23.48;79.90
56719;BME280;42597;40.636;0.278;2022-10-16T14:26:57;97429.34;;;23.37;79.99
56719;BME280;42597;40.636;0.278;2022-10-16T14:29:25;97428.44;;;23.44;80.00
56719;BME280;42597;40.636;0.278;2022-10-16T14:32:20;97424.59;;;23.38;78.77
56719;BME280;42597;40.636;0.278;2022-10-16T14:34:53;97429.97;;;23.45;78.57
56719;BME280;42597;40.636;0.278;2022-10-16T14:37:25;97432.38;;;23.43;79.27
56719;BME280;42597;40.636;0.278;2022-10-16T14:39:52;97427.56;;;23.47;78.48
56719;BME280;42597;40.636;0.278;2022-10-16T14:42:20;97439.81;;;23.46;77.97
56719;BME280;42597;40.636;0.278;2022-10-16T14:44:50;97443.81;;;23.22;78.53
56719;BME280;42597;40.636;0.278;2022-10-16T14:47:19;97441.75;;;23.06;79.41
56719;BME280;42597;40.636;0.278;2022-10-16T14:49:51;97450.78;;;23.06;78.53
56719;BME280;42597;40.636;0.278;2022-10-16T14:52:18;97444.06;;;23.07;79.03
56719;BME280;42597;40.636;0.278;2022-10-16T14:54:43;97451.94;;;23.09;78.83
56719;BME280;42597;40.636;0.278;2022-10-16T14:57:22;97454.59;;;22.93;79.86
56719;BME280;42597;40.636;0.278;2022-10-16T14:59:49;97458.19;;;22.86;81.81
56719;BME280;42597;40.636;0.278;2022-10-16T15:02:29;97463.34;;;23.07;80.30
56719;BME280;42597;40.636;0.278;2022-10-16T15:04:55;97464.44;;;23.13;80.78
56719;BME280;42597;40.636;0.278;2022-10-16T15:07:21;97463.25;;;22.91;81.82
56719;BME280;42597;40.636;0.278;2022-10-16T15:09:47;97464.91;;;22.85;82.46
56719;BME280;42597;40.636;0.278;2022-10-16T15:12:12;97452.94;;;22.95;82.03
56719;BME280;42597;40.636;0.278;2022-10-16T15:14:38;97454.53;;;22.96;81.35